createdAt,value
2022-12-08T00:01:06.178Z,4.03
2022-12-08T00:06:45.768Z,3.37
2022-12-08T00:09:22.093Z,5.77
2022-12-08T00:11:52.389Z,2.07
2022-12-08T00:14:19.118Z,5.23
2022-12-08T00:19:29.664Z,4.77
2022-12-08T00:21:56.389Z,2.60
2022-12-08T00:24:23.107Z,2.57
2022-12-08T00:26:49.678Z,5.80
2022-12-08T00:29:17.657Z,4.87
2022-12-08T00:31:44.677Z,4.53
2022-12-08T00:34:12.114Z,3.80
2022-12-08T00:36:39.041Z,5.60
2022-12-08T00:39:05.963Z,5.30
2022-12-08T00:41:51.126Z,6.87
2022-12-08T00:44:18.972Z,4.17
2022-12-08T00:46:46.142Z,4.00
2022-12-08T00:49:12.825Z,6.17
2022-12-08T00:51:41.910Z,6.50
2022-12-08T00:54:08.489Z,5.77
2022-12-08T00:59:19.079Z,5.17
2022-12-08T01:01:45.923Z,3.97
2022-12-08T01:04:13.124Z,3.97
2022-12-08T01:06:39.641Z,8.83
2022-12-08T01:09:06.439Z,3.30
2022-12-08T01:11:33.025Z,6.30
2022-12-08T01:13:59.597Z,3.33
2022-12-08T01:19:13.865Z,4.27
2022-12-08T01:21:40.577Z,4.60
2022-12-08T01:24:07.641Z,5.07
2022-12-08T01:26:34.207Z,3.10
2022-12-08T01:31:45.530Z,4.77
2022-12-08T01:34:12.380Z,3.43
2022-12-08T01:36:39.215Z,4.27
2022-12-08T01:39:06.834Z,4.20
2022-12-08T01:41:33.834Z,3.03
2022-12-08T01:44:04.063Z,5.00
2022-12-08T01:46:31.696Z,2.30
2022-12-08T01:49:17.074Z,3.53
2022-12-08T01:51:49.795Z,5.30
2022-12-08T01:54:16.397Z,4.23
2022-12-08T01:56:45.814Z,2.70
2022-12-08T01:59:12.480Z,3.67
2022-12-08T02:01:39.803Z,2.30
2022-12-08T02:04:06.820Z,3.77
2022-12-08T02:06:34.802Z,2.87
2022-12-08T02:11:45.470Z,3.67
2022-12-08T02:16:58.037Z,3.60
2022-12-08T02:22:26.549Z,2.07
2022-12-08T02:24:59.360Z,2.70
2022-12-08T02:27:43.087Z,3.07
2022-12-08T02:30:22.000Z,3.43
2022-12-08T02:32:56.161Z,3.13
2022-12-08T02:35:27.859Z,3.40
2022-12-08T02:37:55.142Z,2.73
2022-12-08T02:40:27.128Z,3.20
2022-12-08T02:43:04.326Z,3.27
2022-12-08T02:45:34.851Z,3.03
2022-12-08T02:48:01.461Z,3.63
2022-12-08T02:50:28.385Z,4.37
2022-12-08T02:52:55.569Z,3.83
2022-12-08T02:55:24.124Z,4.50
2022-12-08T02:57:54.059Z,4.20
2022-12-08T03:00:21.234Z,1.93
2022-12-08T03:02:57.703Z,3.43
2022-12-08T03:05:36.300Z,3.10
2022-12-08T03:08:09.889Z,3.40
2022-12-08T03:10:57.241Z,3.53
2022-12-08T03:13:25.291Z,2.90
2022-12-08T03:15:51.870Z,2.77
2022-12-08T03:18:18.774Z,2.33
2022-12-08T03:20:45.591Z,1.90
2022-12-08T03:23:12.723Z,2.40
2022-12-08T03:25:41.452Z,2.03
2022-12-08T03:28:08.041Z,2.00
2022-12-08T03:30:36.613Z,2.73
2022-12-08T03:33:04.371Z,2.20
2022-12-08T03:35:31.999Z,2.40
2022-12-08T03:38:02.101Z,1.67
2022-12-08T03:40:28.704Z,2.30
2022-12-08T03:42:55.735Z,3.33
2022-12-08T03:45:22.369Z,1.90
2022-12-08T03:47:48.891Z,2.40
2022-12-08T03:52:59.755Z,2.93
2022-12-08T03:58:10.481Z,2.53
2022-12-08T04:00:37.080Z,2.50
2022-12-08T04:03:04.672Z,2.37
2022-12-08T04:05:31.290Z,4.53
2022-12-08T04:07:58.547Z,2.93
2022-12-08T04:10:25.180Z,1.57
2022-12-08T04:12:51.824Z,1.47
2022-12-08T04:18:02.409Z,2.57
2022-12-08T04:23:13.080Z,1.67
2022-12-08T04:28:23.857Z,1.10
2022-12-08T04:30:50.497Z,1.90
2022-12-08T04:33:17.094Z,2.27
2022-12-08T04:35:43.692Z,1.80
2022-12-08T04:40:54.308Z,1.90
2022-12-08T04:46:08.389Z,1.83
2022-12-08T04:48:35.243Z,2.57
2022-12-08T04:51:01.763Z,1.93
2022-12-08T04:53:28.308Z,2.50
2022-12-08T04:55:54.998Z,1.87
2022-12-08T04:58:21.920Z,3.63
2022-12-08T05:00:48.477Z,2.00
2022-12-08T05:03:15.108Z,3.07
2022-12-08T05:05:41.968Z,2.10
2022-12-08T05:08:08.654Z,2.10
2022-12-08T05:10:35.265Z,1.90
2022-12-08T05:13:01.865Z,1.93
2022-12-08T05:15:28.426Z,1.23
2022-12-08T05:17:55.735Z,2.20
2022-12-08T05:20:22.313Z,1.10
2022-12-08T05:22:49.176Z,2.47
2022-12-08T05:25:15.795Z,3.93
2022-12-08T05:27:43.179Z,1.37
2022-12-08T05:30:09.814Z,1.60
2022-12-08T05:32:36.423Z,2.13
2022-12-08T05:35:02.959Z,1.50
2022-12-08T05:37:29.547Z,1.67
2022-12-08T05:39:57.034Z,1.50
2022-12-08T05:42:25.154Z,1.57
2022-12-08T05:44:52.065Z,5.40
2022-12-08T05:50:03.115Z,1.47
2022-12-08T05:55:14.382Z,3.57
2022-12-08T06:00:24.794Z,4.43
2022-12-08T06:02:51.969Z,2.63
2022-12-08T06:05:18.711Z,2.07
2022-12-08T06:07:45.297Z,3.87
2022-12-08T06:12:56.665Z,3.40
2022-12-08T06:18:10.268Z,4.83
2022-12-08T06:20:36.814Z,3.87
2022-12-08T06:23:03.614Z,2.10
2022-12-08T06:25:30.240Z,3.87
2022-12-08T06:27:57.378Z,4.23
2022-12-08T06:30:23.926Z,3.97
2022-12-08T06:32:50.782Z,3.20
2022-12-08T06:38:01.529Z,2.90
2022-12-08T06:43:12.129Z,2.07
2022-12-08T06:48:24.954Z,6.10
2022-12-08T06:53:35.749Z,3.13
2022-12-08T06:56:02.303Z,5.33
2022-12-08T06:58:29.067Z,4.77
2022-12-08T07:00:55.728Z,3.90
2022-12-08T07:03:22.391Z,4.53
2022-12-08T07:05:49.034Z,5.40
2022-12-08T07:08:15.781Z,2.63
2022-12-08T07:13:26.635Z,4.33
2022-12-08T07:15:53.383Z,3.73
2022-12-08T07:18:20.032Z,6.67
2022-12-08T07:20:46.589Z,4.27
2022-12-08T07:23:13.320Z,6.80
2022-12-08T07:25:39.950Z,3.83
2022-12-08T07:28:10.415Z,1.83
2022-12-08T07:30:37.149Z,4.90
2022-12-08T07:33:04.953Z,2.83
2022-12-08T07:35:33.468Z,3.77
2022-12-08T07:40:45.601Z,3.30
2022-12-08T07:45:56.544Z,2.87
2022-12-08T07:48:23.446Z,2.97
2022-12-08T07:50:50.050Z,3.47
2022-12-08T07:53:16.697Z,5.50
2022-12-08T07:55:43.333Z,4.73
2022-12-08T07:58:10.251Z,6.27
2022-12-08T08:00:36.946Z,6.37
2022-12-08T08:03:03.777Z,7.60
2022-12-08T08:05:30.391Z,4.30
2022-12-08T08:07:57.580Z,8.90
2022-12-08T08:10:24.479Z,5.70
2022-12-08T08:12:51.261Z,5.27
2022-12-08T08:15:19.316Z,3.93
2022-12-08T08:17:45.944Z,2.90
2022-12-08T08:20:12.775Z,5.20
2022-12-08T08:22:39.364Z,6.23
2022-12-08T08:25:06.076Z,3.50
2022-12-08T08:27:32.625Z,4.73
2022-12-08T08:29:59.222Z,8.33
2022-12-08T08:35:10.448Z,7.27
2022-12-08T08:40:21.718Z,5.60
2022-12-08T08:45:33.129Z,4.77
2022-12-08T08:47:59.864Z,5.57
2022-12-08T08:50:29.510Z,7.77
2022-12-08T08:52:59.543Z,9.40
2022-12-08T08:55:26.153Z,4.90
2022-12-08T08:57:53.079Z,9.53
2022-12-08T09:00:20.033Z,6.47
2022-12-08T09:02:46.617Z,7.33
2022-12-08T09:05:13.665Z,4.67
2022-12-08T09:07:40.486Z,6.23
2022-12-08T09:10:07.997Z,5.23
2022-12-08T09:12:34.858Z,5.23
2022-12-08T09:15:01.557Z,5.67
2022-12-08T09:17:28.298Z,6.73
2022-12-08T09:19:54.963Z,7.03
2022-12-08T09:25:06.421Z,6.57
2022-12-08T09:30:18.329Z,5.53
2022-12-08T09:35:29.373Z,9.10
2022-12-08T09:37:56.812Z,10.70
2022-12-08T09:40:23.797Z,9.60
2022-12-08T09:45:43.575Z,15.43
2022-12-08T09:48:12.134Z,18.33
2022-12-08T09:50:52.639Z,15.93
2022-12-08T09:53:21.055Z,8.63
2022-12-08T09:56:00.734Z,12.13
2022-12-08T10:01:21.732Z,13.73
2022-12-08T10:03:48.504Z,12.30
2022-12-08T10:06:33.980Z,14.87
2022-12-08T10:09:11.115Z,9.00
2022-12-08T10:11:41.162Z,16.23
2022-12-08T10:17:04.052Z,11.30
2022-12-08T10:19:30.799Z,10.93
2022-12-08T10:21:57.536Z,10.13
2022-12-08T10:24:24.099Z,11.73
2022-12-08T10:29:35.018Z,11.23
2022-12-08T10:32:02.416Z,8.23
2022-12-08T10:34:29.114Z,9.57
2022-12-08T10:36:59.030Z,10.20
2022-12-08T10:39:32.698Z,12.23
2022-12-08T10:42:18.774Z,9.47
2022-12-08T10:44:58.041Z,6.97
2022-12-08T10:47:25.720Z,12.23
2022-12-08T10:50:11.246Z,10.10
2022-12-08T10:52:38.650Z,9.87
2022-12-08T10:55:13.473Z,10.93
2022-12-08T10:57:40.324Z,12.30
2022-12-08T11:00:13.631Z,11.40
2022-12-08T11:02:51.386Z,11.57
2022-12-08T11:05:17.984Z,10.87
2022-12-08T11:07:48.775Z,7.47
2022-12-08T11:10:17.493Z,11.10
2022-12-08T11:12:44.222Z,12.63
2022-12-08T11:15:14.636Z,9.30
2022-12-08T11:17:41.371Z,10.60
2022-12-08T11:20:11.005Z,11.60
2022-12-08T11:22:37.611Z,11.37
2022-12-08T11:25:07.352Z,11.73
2022-12-08T11:27:34.569Z,11.83
2022-12-08T11:30:01.404Z,11.17
2022-12-08T11:32:28.145Z,10.27
2022-12-08T11:35:02.356Z,9.83
2022-12-08T11:37:34.681Z,11.87
2022-12-08T11:40:04.224Z,5.70
2022-12-08T11:42:32.445Z,9.20
2022-12-08T11:44:59.985Z,8.77
2022-12-08T11:47:27.946Z,10.43
2022-12-08T11:49:56.962Z,8.93
2022-12-08T11:52:28.386Z,7.87
2022-12-08T11:55:13.701Z,9.50
2022-12-08T11:57:40.259Z,10.07
2022-12-08T12:00:07.518Z,10.23
2022-12-08T12:02:42.607Z,9.90
2022-12-08T12:05:10.971Z,7.13
2022-12-08T12:07:43.655Z,7.47
2022-12-08T12:10:18.677Z,8.90
2022-12-08T12:13:03.881Z,10.30
2022-12-08T12:15:45.606Z,8.03
2022-12-08T12:18:16.807Z,13.10
2022-12-08T12:20:53.849Z,9.63
2022-12-08T12:23:24.787Z,7.43
2022-12-08T12:25:55.693Z,9.07
2022-12-08T12:28:22.595Z,9.27
2022-12-08T12:31:05.071Z,9.17
2022-12-08T12:33:31.847Z,8.27
2022-12-08T12:35:58.612Z,7.83
2022-12-08T12:38:44.833Z,10.07
2022-12-08T12:41:12.192Z,9.50
2022-12-08T12:43:38.891Z,9.53
2022-12-08T12:46:24.000Z,8.70
2022-12-08T12:48:51.118Z,9.73
2022-12-08T12:51:33.042Z,10.00
2022-12-08T12:54:19.594Z,11.07
2022-12-08T12:56:47.067Z,13.17
2022-12-08T12:59:28.965Z,13.73
2022-12-08T13:01:55.818Z,12.13
2022-12-08T13:04:29.577Z,14.37
2022-12-08T13:06:56.145Z,11.23
2022-12-08T13:09:32.970Z,17.53
2022-12-08T13:12:12.143Z,12.80
2022-12-08T13:14:45.529Z,12.83
2022-12-08T13:17:12.596Z,12.17
2022-12-08T13:19:39.240Z,12.57
2022-12-08T13:22:25.741Z,16.07
2022-12-08T13:24:52.337Z,13.83
2022-12-08T13:27:28.619Z,15.33
2022-12-08T13:30:14.085Z,15.70
2022-12-08T13:36:01.002Z,12.93
2022-12-08T13:38:28.402Z,12.50
2022-12-08T13:40:54.891Z,15.57
2022-12-08T13:58:27.391Z,15.30
2022-12-08T14:01:03.177Z,15.53
2022-12-08T14:03:29.803Z,15.73
2022-12-08T14:06:12.105Z,15.90
2022-12-08T14:11:34.040Z,11.33
2022-12-08T14:14:01.642Z,10.63
2022-12-08T14:16:28.787Z,13.23
2022-12-08T14:18:56.170Z,13.27
2022-12-08T14:24:07.115Z,20.33
2022-12-08T14:29:44.939Z,11.50
2022-12-08T14:35:06.788Z,11.20
2022-12-08T14:37:38.131Z,11.13
2022-12-08T14:40:07.001Z,11.57
2022-12-08T14:45:26.429Z,17.60
2022-12-08T14:47:53.382Z,17.53
2022-12-08T14:50:40.134Z,13.97
2022-12-08T14:53:11.353Z,14.23
2022-12-08T14:55:38.075Z,14.90
2022-12-08T14:58:04.737Z,18.07
2022-12-08T15:00:31.377Z,18.53
2022-12-08T15:02:58.207Z,18.57
2022-12-08T15:05:26.868Z,18.13
2022-12-08T15:10:41.226Z,17.63
2022-12-08T15:13:11.010Z,18.80
2022-12-08T15:15:56.753Z,17.80
2022-12-08T15:21:19.872Z,19.83
2022-12-08T15:23:52.375Z,22.00
2022-12-08T15:26:20.278Z,22.80
2022-12-08T15:28:47.095Z,24.70
2022-12-08T15:33:59.426Z,21.23
2022-12-08T15:39:29.347Z,21.47
2022-12-08T15:44:40.398Z,23.77
2022-12-08T15:47:07.367Z,24.27
2022-12-08T15:49:34.596Z,24.67
2022-12-08T15:52:11.268Z,24.77
2022-12-08T15:57:44.290Z,27.37
2022-12-08T16:09:11.816Z,24.57
2022-12-08T16:20:17.393Z,27.17
2022-12-08T16:25:36.411Z,26.67
2022-12-08T16:30:57.708Z,26.17
2022-12-08T16:33:24.264Z,29.27
2022-12-08T16:35:51.007Z,37.27
2022-12-08T16:38:17.624Z,28.80
2022-12-08T16:41:05.688Z,41.60
2022-12-08T16:43:34.875Z,66.30
2022-12-08T16:46:01.675Z,35.57
2022-12-08T16:48:28.365Z,45.77
2022-12-08T16:50:54.990Z,39.07
2022-12-08T16:53:21.608Z,55.87
2022-12-08T16:55:48.489Z,63.90
2022-12-08T16:58:15.266Z,68.80
2022-12-08T17:00:42.109Z,53.67
2022-12-08T17:05:54.728Z,39.67
2022-12-08T17:08:21.483Z,33.60
2022-12-08T17:11:07.389Z,28.50
2022-12-08T17:16:22.000Z,30.87
2022-12-08T17:18:48.833Z,31.37
2022-12-08T17:21:16.142Z,30.57
2022-12-08T17:23:43.433Z,34.87
2022-12-08T17:26:10.197Z,32.50
2022-12-08T17:28:59.450Z,32.03
2022-12-08T17:31:29.349Z,32.03
2022-12-08T17:34:03.177Z,31.40
2022-12-08T17:36:29.866Z,29.37
2022-12-08T17:38:57.186Z,36.17
2022-12-08T17:41:23.793Z,27.20
2022-12-08T17:43:50.461Z,31.70
2022-12-08T17:46:20.624Z,30.03
2022-12-08T17:48:48.008Z,25.40
2022-12-08T17:51:15.243Z,31.07
2022-12-08T17:53:41.831Z,32.33
2022-12-08T17:56:16.248Z,28.70
2022-12-08T17:58:42.862Z,29.63
2022-12-08T18:01:10.507Z,29.17
2022-12-08T18:03:37.383Z,28.33
2022-12-08T18:06:07.925Z,32.87
2022-12-08T18:08:34.696Z,50.90
2022-12-08T18:11:01.793Z,53.77
2022-12-08T18:13:28.477Z,37.70
2022-12-08T18:15:55.265Z,30.43
2022-12-08T18:21:07.481Z,33.47
2022-12-08T18:23:35.517Z,30.53
2022-12-08T18:26:03.735Z,32.73
2022-12-08T18:28:30.287Z,31.40
2022-12-08T18:30:58.264Z,37.20
2022-12-08T18:33:24.933Z,36.90
2022-12-08T18:35:51.501Z,37.80
2022-12-08T18:38:18.077Z,35.57
2022-12-08T18:40:45.620Z,38.30
2022-12-08T18:43:12.144Z,52.90
2022-12-08T18:45:39.874Z,39.50
2022-12-08T18:48:10.757Z,36.90
2022-12-08T18:50:37.305Z,38.70
2022-12-08T18:55:50.951Z,42.20
2022-12-08T18:58:17.881Z,42.53
2022-12-08T19:00:44.418Z,39.57
2022-12-08T19:03:13.519Z,41.37
2022-12-08T19:08:31.031Z,39.20
2022-12-08T19:10:58.088Z,40.03
2022-12-08T19:13:24.700Z,48.10
2022-12-08T19:15:51.383Z,50.30
2022-12-08T19:18:18.009Z,46.57
2022-12-08T19:20:44.678Z,44.80
2022-12-08T19:23:14.320Z,49.77
2022-12-08T19:25:41.033Z,55.40
2022-12-08T19:28:09.893Z,55.70
2022-12-08T19:30:36.682Z,63.63
2022-12-08T19:33:03.455Z,57.50
2022-12-08T19:35:30.132Z,58.53
2022-12-08T19:37:56.693Z,66.10
2022-12-08T19:40:41.900Z,62.13
2022-12-08T19:43:36.418Z,55.63
2022-12-08T19:46:03.441Z,59.30
2022-12-08T19:48:30.689Z,74.87
2022-12-08T19:50:57.312Z,80.83
2022-12-08T19:56:11.119Z,66.50
2022-12-08T20:01:23.044Z,60.20
2022-12-08T20:03:50.906Z,72.97
2022-12-08T20:06:19.901Z,60.37
2022-12-08T20:08:50.597Z,61.80
2022-12-08T20:11:17.549Z,42.67
2022-12-08T20:13:45.895Z,57.97
2022-12-08T20:16:12.873Z,57.80
2022-12-08T20:21:24.337Z,54.50
2022-12-08T20:26:35.027Z,50.30
2022-12-08T20:31:46.610Z,58.23
2022-12-08T20:34:17.078Z,61.33
2022-12-08T20:36:44.024Z,60.40
2022-12-08T20:39:11.402Z,56.90
2022-12-08T20:44:21.961Z,66.00
2022-12-08T20:49:34.981Z,78.20
2022-12-08T20:52:01.943Z,77.00
2022-12-08T20:54:28.953Z,72.60
2022-12-08T20:56:56.170Z,69.00
2022-12-08T20:59:24.458Z,82.33
2022-12-08T21:01:53.006Z,76.10
2022-12-08T21:04:19.988Z,73.60
2022-12-08T21:09:35.393Z,140.03
2022-12-08T21:12:05.624Z,78.03
2022-12-08T21:14:33.808Z,70.47
2022-12-08T21:17:01.429Z,74.43
2022-12-08T21:22:14.992Z,63.43
2022-12-08T21:24:41.764Z,102.80
2022-12-08T21:27:09.598Z,38.60
2022-12-08T21:29:37.375Z,39.53
2022-12-08T21:32:04.199Z,34.17
2022-12-08T21:34:34.393Z,45.93
2022-12-08T21:37:01.519Z,48.00
2022-12-08T21:39:28.817Z,48.53
2022-12-08T21:42:14.359Z,48.03
2022-12-08T21:44:41.114Z,43.10
2022-12-08T21:47:07.923Z,39.27
2022-12-08T21:49:34.677Z,39.43
2022-12-08T21:54:45.597Z,49.90
2022-12-08T21:57:13.495Z,49.37
2022-12-08T21:59:42.607Z,60.07
2022-12-08T22:02:17.942Z,52.57
2022-12-08T22:04:50.149Z,41.77
2022-12-08T22:07:17.103Z,47.20
2022-12-08T22:09:47.793Z,43.17
2022-12-08T22:12:16.832Z,49.73
2022-12-08T22:14:43.752Z,51.40
2022-12-08T22:17:10.748Z,41.73
2022-12-08T22:19:37.856Z,42.70
2022-12-08T22:22:04.706Z,48.30
2022-12-08T22:24:31.479Z,46.93
2022-12-08T22:26:59.572Z,44.77
2022-12-08T22:29:26.981Z,44.67
2022-12-08T22:31:53.775Z,44.40
2022-12-08T22:34:20.731Z,45.70
2022-12-08T22:36:49.149Z,44.63
2022-12-08T22:39:15.989Z,44.67
2022-12-08T22:41:42.661Z,39.97
2022-12-08T22:44:09.550Z,49.83
2022-12-08T22:46:36.321Z,49.00
2022-12-08T22:49:03.188Z,49.87
2022-12-08T22:51:29.952Z,44.30
2022-12-08T22:53:56.539Z,50.63
2022-12-08T22:56:23.173Z,45.30
2022-12-08T22:58:49.906Z,44.17
2022-12-08T23:01:22.540Z,50.37
2022-12-08T23:03:49.402Z,44.90
2022-12-08T23:06:16.362Z,41.77
2022-12-08T23:08:43.503Z,40.23
2022-12-08T23:11:10.058Z,38.87
2022-12-08T23:13:37.387Z,38.30
2022-12-08T23:16:04.127Z,47.03
2022-12-08T23:18:30.731Z,37.10
2022-12-08T23:21:02.580Z,40.07
2022-12-08T23:23:29.285Z,41.20
2022-12-08T23:25:56.030Z,40.53
2022-12-08T23:28:22.620Z,38.30
2022-12-08T23:30:49.328Z,35.93
2022-12-08T23:35:59.739Z,34.90
2022-12-08T23:41:11.387Z,36.90
2022-12-08T23:46:22.541Z,37.17
2022-12-08T23:51:33.835Z,38.13
2022-12-08T23:56:44.710Z,37.27
2022-12-08T23:59:11.288Z,33.50
